Beech Island, South Carolina
Current Conditions -  °F | °C
As of 4:53 AM on Wednesday 26 Nov 2014 (Local Time) from KAGS Reporting Station
Light Rain Light Rain  
Wind Chill: 44°   Ceiling: 900
Heat Index: 48°   Visibility: 5mi
Dew Point: 47°   Wind: 9mph
Humidity: 96%   Direction: 320°NW
Pressure: 29.94"   Gusts: NA
Location:  33.43°N, 81.89°W
Report Text: KAGS 260953Z AUTO 32008KT 5SM -RA BR OVC009 09/08 A2994 RMK AO2 SLP137 P0011 T00890083
Loading
Personal Weather Stations






























Interactive Weather Map New forecast layout! Learn more

10-Day Weather Forecast

Advertisements
Track Severe Weather on mobile